Time;durP1;ratioP1;P1;durP2;ratioP2;P2;SDS_P1;SDS_P2;PMS_P1;PMS_P2;Temp;Humidity;BMP_temperature;BMP_pressure;BME280_temperature;BME280_humidity;BME280_pressure;Samples;Min_cycle;Max_cycle;Signal;HPM_P1;HPM_P2
2022/10/07 00:02:20;;;;;;;13.73;2.58;;;;;;;;;;5021057;28;20380;-71
2022/10/07 00:04:46;;;;;;;18.65;2.67;;;;;;;;;;5016821;28;20046;-71
2022/10/07 00:07:13;;;;;;;15.05;2.55;;;;;;;;;;5001035;28;20065;-71
2022/10/07 00:09:40;;;;;;;11.98;3.05;;;;;;;;;;5015155;28;20092;-71
2022/10/07 00:12:06;;;;;;;19.38;2.35;;;;;;;;;;5030253;28;20059;-71
2022/10/07 00:14:32;;;;;;;17.45;2.42;;;;;;;;;;5026680;28;20179;-71
2022/10/07 00:16:58;;;;;;;8.20;2.17;;;;;;;;;;5025363;28;20041;-71
2022/10/07 00:19:24;;;;;;;8.35;1.92;;;;;;;;;;5025047;28;20041;-71
2022/10/07 00:21:50;;;;;;;11.75;2.40;;;;;;;;;;5023003;28;20084;-71
2022/10/07 00:24:16;;;;;;;17.63;2.95;;;;;;;;;;5021154;28;20037;-71
2022/10/07 00:26:43;;;;;;;23.23;2.92;;;;;;;;;;5019644;28;20038;-71
2022/10/07 00:29:09;;;;;;;14.95;2.50;;;;;;;;;;5021161;28;20046;-71
2022/10/07 00:31:35;;;;;;;12.75;2.95;;;;;;;;;;5019694;28;20080;-71
2022/10/07 00:34:02;;;;;;;12.73;2.40;;;;;;;;;;5022042;28;20416;-71
2022/10/07 00:36:30;;;;;;;14.50;2.67;;;;;;;;;;5028457;28;20389;-71
2022/10/07 00:38:57;;;;;;;17.23;2.38;;;;;;;;;;5032975;28;20051;-71
2022/10/07 00:41:25;;;;;;;12.75;2.28;;;;;;;;;;5029009;28;20059;-71
2022/10/07 00:43:51;;;;;;;16.73;2.78;;;;;;;;;;5030587;28;20035;-71
2022/10/07 00:46:34;;;;;;;14.98;2.60;;;;;;;;;;5027225;28;20437;-71
2022/10/07 00:49:10;;;;;;;13.90;2.72;;;;;;;;;;5024813;28;20050;-71
2022/10/07 00:51:36;;;;;;;12.70;2.25;;;;;;;;;;5025837;28;20373;-71
2022/10/07 00:54:11;;;;;;;17.02;2.22;;;;;;;;;;5020976;28;20042;-71
2022/10/07 00:56:38;;;;;;;17.23;2.60;;;;;;;;;;5019970;28;20043;-71
2022/10/07 00:59:05;;;;;;;17.05;2.35;;;;;;;;;;5016372;28;20048;-71
2022/10/07 01:01:31;;;;;;;9.40;2.20;;;;;;;;;;5022383;28;20037;-71
2022/10/07 01:03:57;;;;;;;11.00;2.55;;;;;;;;;;5032094;28;20121;-71
2022/10/07 01:06:23;;;;;;;12.20;2.13;;;;;;;;;;5030307;28;20417;-71
2022/10/07 01:08:51;;;;;;;15.18;2.80;;;;;;;;;;5030191;28;20041;-71
2022/10/07 01:11:20;;;;;;;16.08;2.30;;;;;;;;;;5013896;28;20120;-71
2022/10/07 01:14:06;;;;;;;14.50;2.53;;;;;;;;;;5025934;28;20046;-71
2022/10/07 01:17:23;;;;;;;16.98;2.40;;;12.10;99.90;;;;;;5024255;28;20041;-71
2022/10/07 01:19:58;;;;;;;14.65;2.90;;;;;;;;;;5004748;28;20050;-71
2022/10/07 01:22:28;;;;;;;12.65;2.55;;;;;;;;;;5020198;28;20403;-71
2022/10/07 01:25:06;;;;;;;15.52;2.35;;;;;;;;;;5016741;28;20037;-71
2022/10/07 01:27:35;;;;;;;9.00;2.35;;;12.00;99.90;;;;;;5016612;28;20076;-71
2022/10/07 01:30:06;;;;;;;14.63;2.30;;;;;;;;;;5027037;28;20038;-71
2022/10/07 01:33:01;;;;;;;19.20;2.60;;;;;;;;;;5014295;28;20034;-71
2022/10/07 01:35:31;;;;;;;18.98;2.40;;;;;;;;;;5033830;28;20053;-71
2022/10/07 01:38:00;;;;;;;12.20;2.40;;;;;;;;;;5026256;28;20081;-71
2022/10/07 01:40:30;;;;;;;11.20;2.10;;;;;;;;;;5025918;28;20042;-71
2022/10/07 01:42:57;;;;;;;10.05;2.22;;;;;;;;;;5023828;28;20162;-71
2022/10/07 01:45:25;;;;;;;9.93;2.30;;;;;;;;;;5022324;28;20046;-71
2022/10/07 01:47:51;;;;;;;15.50;2.60;;;;;;;;;;5020590;28;20049;-71
2022/10/07 01:50:20;;;;;;;15.35;2.67;;;;;;;;;;5018609;28;20073;-71
2022/10/07 01:52:53;;;;;;;10.48;3.25;;;;;;;;;;5016536;28;20165;-71
2022/10/07 01:55:49;;;;;;;21.65;3.42;;;11.80;99.90;;;;;;5018848;28;20083;-71
2022/10/07 01:58:21;;;;;;;11.45;2.72;;;;;;;;;;5030567;28;20424;-71
2022/10/07 02:00:50;;;;;;;15.93;3.72;;;;;;;;;;5028229;28;20038;-71
2022/10/07 02:03:28;;;;;;;15.43;2.63;;;;;;;;;;5027070;28;20465;-71
2022/10/07 02:05:58;;;;;;;9.30;2.65;;;;;;;;;;5026104;28;20505;-71
2022/10/07 02:08:27;;;;;;;18.02;3.55;;;;;;;;;;5022988;28;20092;-71
2022/10/07 02:11:12;;;;;;;20.25;3.20;;;;;;;;;;5022403;28;20037;-70
2022/10/07 02:13:49;;;;;;;13.52;2.72;;;;;;;;;;5022195;28;20041;-71
2022/10/07 02:16:21;;;;;;;18.45;3.20;;;;;;;;;;5018328;28;20037;-71
2022/10/07 02:18:49;;;;;;;14.10;3.33;;;;;;;;;;5015085;28;20049;-71
2022/10/07 02:21:17;;;;;;;15.20;3.00;;;;;;;;;;5019157;28;20049;-71
2022/10/07 02:23:44;;;;;;;16.00;3.17;;;;;;;;;;5026495;28;20073;-72
2022/10/07 02:26:12;;;;;;;20.35;3.53;;;;;;;;;;5013035;28;20124;-71
2022/10/07 02:28:40;;;;;;;17.63;2.72;;;;;;;;;;5027956;28;20048;-71
2022/10/07 02:31:08;;;;;;;14.32;2.80;;;;;;;;;;5026318;28;20046;-71
2022/10/07 02:33:35;;;;;;;18.40;3.17;;;;;;;;;;5009633;28;20037;-71
2022/10/07 02:36:08;;;;;;;13.45;2.78;;;;;;;;;;5021927;28;20042;-71
2022/10/07 02:38:34;;;;;;;14.55;2.90;;;;;;;;;;5021431;28;20046;-71
2022/10/07 02:41:13;;;;;;;17.80;2.92;;;;;;;;;;5021034;28;20033;-71
2022/10/07 02:43:43;;;;;;;14.80;3.22;;;;;;;;;;5018461;28;20129;-71
2022/10/07 02:46:12;;;;;;;12.10;3.13;;;;;;;;;;5015916;28;20044;-71
2022/10/07 02:48:40;;;;;;;16.80;3.17;;;;;;;;;;5017672;28;20088;-71
2022/10/07 02:51:09;;;;;;;19.35;3.47;;;;;;;;;;5029437;28;20132;-71
2022/10/07 02:53:36;;;;;;;13.25;3.03;;;;;;;;;;5012454;28;20034;-71
2022/10/07 02:56:04;;;;;;;15.27;3.33;;;;;;;;;;5027611;28;20042;-71
2022/10/07 02:58:30;;;;;;;20.75;3.55;;;;;;;;;;5025454;28;20045;-71
2022/10/07 03:00:59;;;;;;;19.35;3.13;;;;;;;;;;5023994;28;20045;-71
2022/10/07 03:03:25;;;;;;;18.85;3.50;;;;;;;;;;5043084;28;20048;-71
2022/10/07 03:05:51;;;;;;;22.20;3.45;;;;;;;;;;5019356;28;20049;-71
2022/10/07 03:08:18;;;;;;;18.65;3.33;;;;;;;;;;5022098;28;20087;-71
2022/10/07 03:10:44;;;;;;;17.35;3.40;;;;;;;;;;5017216;28;20109;-71
2022/10/07 03:13:10;;;;;;;22.73;4.03;;;;;;;;;;5015119;28;20471;-71
2022/10/07 03:15:37;;;;;;;15.98;4.35;;;;;;;;;;5017749;28;20041;-71
2022/10/07 03:18:03;;;;;;;20.27;3.60;;;;;;;;;;5029220;28;20120;-71
2022/10/07 03:20:31;;;;;;;13.90;3.30;;;;;;;;;;5026471;28;20504;-71
2022/10/07 03:22:58;;;;;;;17.75;3.38;;;;;;;;;;5028482;28;20084;-71
2022/10/07 03:25:25;;;;;;;18.38;3.50;;;;;;;;;;5025467;28;20469;-71
2022/10/07 03:27:53;;;;;;;16.38;4.35;;;;;;;;;;5007320;28;20124;-71
2022/10/07 03:30:21;;;;;;;11.48;3.35;;;;;;;;;;5021837;28;20494;-71
2022/10/07 03:32:48;;;;;;;20.55;3.42;;;;;;;;;;5019876;28;20042;-71
2022/10/07 03:35:15;;;;;;;16.00;3.92;;;;;;;;;;5044923;28;21320;-71
2022/10/07 03:37:41;;;;;;;11.02;3.28;;;;;;;;;;5020015;28;20048;-71
2022/10/07 03:40:07;;;;;;;14.75;3.85;;;;;;;;;;5017486;28;20088;-71
2022/10/07 03:42:33;;;;;;;13.85;3.03;;;;;;;;;;5016243;28;20045;-71
2022/10/07 03:45:00;;;;;;;16.88;3.05;;;;;;;;;;5027489;28;20084;-71
2022/10/07 03:47:26;;;;;;;20.00;3.05;;;;;;;;;;5028797;28;20034;-71
2022/10/07 03:49:53;;;;;;;18.33;3.75;;;;;;;;;;5026876;28;20045;-71
2022/10/07 03:52:19;;;;;;;14.93;2.80;;;;;;;;;;5025549;28;20568;-71
2022/10/07 03:54:45;;;;;;;16.40;3.42;;;;;;;;;;5023044;28;20165;-71
2022/10/07 03:59:55;;;;;;;24.65;4.07;;;;;;;;;;5043013;28;20128;-71
2022/10/07 04:02:24;;;;;;;18.05;3.60;;;;;;;;;;5021492;28;20045;-72
2022/10/07 04:04:51;;;;;;;17.90;3.50;;;;;;;;;;5021867;28;20113;-71
2022/10/07 04:07:18;;;;;;;15.43;3.30;;;;;;;;;;5022907;28;20049;-71
2022/10/07 04:09:44;;;;;;;20.35;4.57;;;;;;;;;;5021199;28;20033;-71
2022/10/07 04:12:10;;;;;;;16.48;3.35;;;;;;;;;;5028938;28;20123;-71
2022/10/07 04:14:37;;;;;;;18.63;3.72;;;;;;;;;;5032530;28;20470;-71
2022/10/07 04:17:04;;;;;;;14.30;3.38;;;;;;;;;;5028886;28;20049;-71
2022/10/07 04:19:30;;;;;;;15.65;4.47;;;;;;;;;;5027785;28;20044;-71
2022/10/07 04:21:56;;;;;;;18.27;4.25;;;;;;;;;;5027849;28;20127;-71
2022/10/07 04:24:22;;;;;;;19.25;4.25;;;;;;;;;;5027450;28;20046;-71
2022/10/07 04:26:49;;;;;;;22.80;4.10;;;;;;;;;;5023593;28;20116;-71
2022/10/07 04:29:15;;;;;;;19.85;3.70;;;;;;;;;;5023488;28;20029;-71
2022/10/07 04:31:41;;;;;;;18.88;4.03;;;;;;;;;;5020706;28;20038;-71
2022/10/07 04:34:07;;;;;;;18.80;4.00;;;;;;;;;;5021319;28;20112;-71
2022/10/07 04:36:33;;;;;;;11.98;3.10;;;;;;;;;;5001735;28;20056;-71
2022/10/07 04:38:59;;;;;;;21.77;3.78;;;;;;;;;;5021756;28;20046;-72
2022/10/07 04:41:25;;;;;;;18.05;4.28;;;;;;;;;;5033820;28;20452;-71
2022/10/07 04:43:52;;;;;;;19.13;4.07;;;;;;;;;;5029469;28;20034;-71
2022/10/07 04:46:18;;;;;;;20.05;3.60;;;;;;;;;;5030176;28;20048;-72
2022/10/07 04:48:47;;;;;;;16.27;3.45;;;;;;;;;;5028497;28;20061;-71
2022/10/07 04:51:14;;;;;;;17.98;3.50;;;;;;;;;;5026995;28;20417;-71
2022/10/07 04:53:40;;;;;;;17.52;4.03;;;;;;;;;;5025800;28;20076;-71
2022/10/07 04:56:07;;;;;;;22.17;3.65;;;;;;;;;;5021999;28;20452;-71
2022/10/07 04:58:33;;;;;;;18.33;3.40;;;;;;;;;;5022234;28;20136;-71
2022/10/07 05:01:00;;;;;;;15.23;4.20;;;;;;;;;;5021299;28;20049;-71
2022/10/07 05:03:27;;;;;;;16.40;3.92;;;;;;;;;;5020074;28;20042;-71
2022/10/07 05:05:55;;;;;;;19.55;3.72;;;11.20;99.90;;;;;;5018954;28;20037;-71
2022/10/07 05:08:23;;;;;;;20.00;3.97;;;;;;;;;;5032885;28;20049;-71
2022/10/07 05:10:54;;;;;;;14.50;3.97;;;;;;;;;;5033927;28;20507;-71
2022/10/07 05:13:20;;;;;;;19.88;4.55;;;;;;;;;;5028970;28;20041;-71
2022/10/07 05:15:53;;;;;;;15.73;4.00;;;;;;;;;;5028234;28;20057;-71
2022/10/07 05:18:20;;;;;;;16.45;3.67;;;;;;;;;;5026175;28;20120;-71
2022/10/07 05:20:47;;;;;;;17.08;3.65;;;;;;;;;;5024213;28;20045;-71
2022/10/07 05:23:17;;;;;;;26.02;4.38;;;;;;;;;;5022852;28;20044;-71
2022/10/07 05:25:43;;;;;;;15.65;4.15;;;;;;;;;;5020860;28;20514;-71
2022/10/07 05:28:13;;;;;;;19.20;4.80;;;;;;;;;;5020862;28;20053;-70
2022/10/07 05:30:40;;;;;;;15.77;4.40;;;;;;;;;;5018351;28;20099;-71
2022/10/07 05:33:06;;;;;;;18.40;4.45;;;;;;;;;;5015562;28;20040;-71
2022/10/07 05:35:33;;;;;;;18.77;3.80;;;;;;;;;;5026600;28;20143;-74
2022/10/07 05:37:59;;;;;;;17.58;3.50;;;;;;;;;;5015718;28;20051;-75
2022/10/07 05:40:26;;;;;;;19.52;4.03;;;;;;;;;;5029877;28;20056;-72
2022/10/07 05:42:52;;;;;;;18.15;3.83;;;;;;;;;;5029091;28;20044;-71
2022/10/07 05:45:18;;;;;;;21.35;4.35;;;;;;;;;;5026664;28;20504;-71
2022/10/07 05:47:46;;;;;;;10.45;3.90;;;;;;;;;;5009744;28;20140;-71
2022/10/07 05:50:12;;;;;;;26.08;4.20;;;;;;;;;;5023639;28;20096;-71
2022/10/07 05:52:38;;;;;;;17.05;3.63;;;;;;;;;;5021934;28;20436;-72
2022/10/07 05:55:05;;;;;;;19.23;4.05;;;;;;;;;;5019110;28;20042;-71
2022/10/07 05:57:31;;;;;;;21.52;5.57;;;;;;;;;;5022520;28;20041;-72
2022/10/07 05:59:57;;;;;;;21.38;4.50;;;;;;;;;;5022710;28;20187;-72
2022/10/07 06:02:24;;;;;;;18.48;4.93;;;;;;;;;;5031353;28;20040;-72
2022/10/07 06:04:50;;;;;;;18.33;3.95;;;;;;;;;;5016428;28;20049;-72
2022/10/07 06:07:17;;;;;;;19.67;4.75;;;;;;;;;;5032703;28;20033;-72
2022/10/07 06:15:12;;;;;;;21.15;5.57;;;;;;;;;;5032531;28;20042;-72
2022/10/07 06:17:42;;;;;;;18.67;4.53;;;;;;;;;;5029624;28;20124;-72
2022/10/07 06:20:09;;;;;;;15.73;4.88;;;;;;;;;;5032610;28;20397;-73
2022/10/07 06:22:35;;;;;;;22.50;5.15;;;;;;;;;;5032214;28;20046;-73
2022/10/07 06:25:01;;;;;;;25.85;5.50;;;;;;;;;;5032036;28;20048;-72
2022/10/07 06:27:28;;;;;;;18.02;4.32;;;;;;;;;;5032565;28;20096;-72
2022/10/07 06:29:54;;;;;;;15.32;3.90;;;;;;;;;;5032323;28;20069;-72
2022/10/07 06:32:20;;;;;;;17.90;4.25;;;;;;;;;;5032249;28;20056;-72
2022/10/07 06:34:46;;;;;;;17.83;4.65;;;;;;;;;;5032244;28;20120;-73
2022/10/07 06:37:12;;;;;;;21.85;5.28;;;;;;;;;;5031770;28;20045;-73
2022/10/07 06:39:39;;;;;;;13.98;3.92;;;;;;;;;;5033625;28;20030;-72
2022/10/07 06:42:05;;;;;;;19.30;4.07;;;;;;;;;;5033486;28;20037;-72
2022/10/07 06:44:31;;;;;;;21.98;4.70;;;;;;;;;;5029752;28;20041;-72
2022/10/07 06:46:57;;;;;;;18.55;4.22;;;;;;;;;;5025751;28;20048;-72
2022/10/07 06:49:23;;;;;;;20.25;4.47;;;;;;;;;;5026221;28;20524;-73
2022/10/07 06:51:49;;;;;;;16.65;4.35;;;;;;;;;;5022999;28;20073;-72
2022/10/07 06:54:15;;;;;;;16.13;4.50;;;;;;;;;;5025670;28;20375;-72
2022/10/07 06:56:42;;;;;;;17.05;3.88;;;;;;;;;;5025399;28;20370;-72
2022/10/07 06:59:08;;;;;;;22.17;4.20;;;;;;;;;;5025076;28;20061;-72
2022/10/07 07:01:34;;;;;;;20.35;4.30;;;;;;;;;;5016532;28;20050;-72
2022/10/07 07:04:00;;;;;;;20.80;4.55;;;;;;;;;;5026207;28;20665;-72
2022/10/07 07:06:27;;;;;;;21.95;4.55;;;;;;;;;;5031953;28;20048;-72
2022/10/07 07:08:55;;;;;;;15.30;4.20;;;;;;;;;;5032865;28;20037;-74
2022/10/07 07:11:36;;;;;;;21.80;4.35;;;;;;;;;;5032285;28;20041;-75
2022/10/07 07:14:03;;;;;;;28.73;5.03;;;;;;;;;;5046512;28;20037;-71
2022/10/07 07:16:30;;;;;;;21.90;4.65;;;;;;;;;;5031548;28;20044;-71
2022/10/07 07:19:07;;;;;;;20.55;4.88;;;;;;;;;;5031910;28;20041;-71
2022/10/07 07:21:34;;;;;;;23.73;4.47;;;;;;;;;;5031665;28;20052;-71
2022/10/07 07:24:00;;;;;;;14.90;3.70;;;;;;;;;;5015504;28;20041;-72
2022/10/07 07:26:27;;;;;;;19.92;4.88;;;;;;;;;;5031052;28;20037;-75
2022/10/07 07:28:58;;;;;;;18.88;4.90;;;;;;;;;;5031638;28;20044;-74
2022/10/07 07:31:24;;;;;;;23.45;5.13;;;;;;;;;;5031214;28;20041;-72
2022/10/07 07:33:54;;;;;;;27.83;5.32;;;;;;;;;;5028281;28;20038;-72
2022/10/07 07:36:24;;;;;;;19.98;4.10;;;;;;;;;;5027677;28;20046;-72
2022/10/07 07:38:50;;;;;;;19.25;5.18;;;;;;;;;;5024857;28;20049;-72
2022/10/07 07:41:16;;;;;;;21.55;4.32;;;;;;;;;;5028595;28;20056;-70
2022/10/07 07:43:43;;;;;;;20.95;4.75;;;;;;;;;;5030179;28;20037;-70
2022/10/07 07:46:11;;;;;;;22.67;6.22;;;;;;;;;;5028734;28;20052;-71
2022/10/07 07:48:37;;;;;;;17.73;4.07;;;;;;;;;;5028431;28;20064;-70
2022/10/07 07:51:05;;;;;;;20.77;4.70;;;;;;;;;;5028796;28;20041;-70
2022/10/07 07:53:32;;;;;;;23.75;4.55;;;;;;;;;;5028512;28;20033;-71
2022/10/07 07:55:58;;;;;;;23.10;5.90;;;;;;;;;;5028971;28;20137;-71
2022/10/07 07:58:24;;;;;;;22.85;4.45;;;;;;;;;;5006980;28;20045;-70
2022/10/07 08:01:05;;;;;;;29.67;4.72;;;;;;;;;;5026011;28;20073;-71
2022/10/07 08:03:31;;;;;;;14.63;3.70;;;;;;;;;;5031596;28;20402;-71
2022/10/07 08:06:01;;;;;;;16.67;4.75;;;;;;;;;;5028499;28;20108;-70
2022/10/07 08:08:27;;;;;;;22.45;5.70;;;;;;;;;;5027524;28;20037;-70
2022/10/07 08:10:53;;;;;;;17.42;4.22;;;;;;;;;;5029929;28;20044;-70
2022/10/07 08:13:19;;;;;;;23.80;4.82;;;;;;;;;;5030117;28;20116;-70
2022/10/07 08:15:45;;;;;;;19.85;4.93;;;;;;;;;;5030055;28;20041;-70
2022/10/07 08:18:11;;;;;;;16.75;3.83;;;;;;;;;;5028651;28;20047;-71
2022/10/07 08:20:37;;;;;;;21.88;5.68;;;;;;;;;;5012851;28;20425;-71
2022/10/07 08:23:05;;;;;;;26.08;5.20;;;;;;;;;;5029945;28;20735;-71
2022/10/07 08:25:31;;;;;;;26.02;4.43;;;;;;;;;;5031031;28;20520;-71
2022/10/07 08:27:57;;;;;;;26.90;5.10;;;;;;;;;;5028931;28;20559;-71
2022/10/07 08:30:23;;;;;;;18.83;5.30;;;;;;;;;;5031190;28;20092;-71
2022/10/07 08:32:50;;;;;;;32.00;4.68;;;;;;;;;;5031865;28;20037;-72
2022/10/07 08:35:16;;;;;;;25.33;4.53;;;;;;;;;;5031628;28;20072;-71
2022/10/07 08:37:42;;;;;;;19.02;4.55;;;;;;;;;;5031520;28;20041;-71
2022/10/07 08:40:14;;;;;;;19.80;4.15;;;;;;;;;;5031412;28;20053;-71
2022/10/07 08:42:41;;;;;;;26.02;4.57;;;;;;;;;;5031702;28;20445;-72
2022/10/07 08:45:12;;;;;;;16.50;4.18;;;;;;;;;;5031651;28;20049;-72
2022/10/07 08:47:38;;;;;;;21.98;4.07;;;;;;;;;;5032417;28;20042;-72
2022/10/07 08:50:06;;;;;;;21.45;5.13;;;;;;;;;;5035346;28;20049;-72
2022/10/07 08:52:38;;;;;;;16.67;3.97;;;;;;;;;;5018694;28;20037;-72
2022/10/07 08:55:27;;;;;;;28.35;5.70;;;;;;;;;;5035047;28;20037;-71
2022/10/07 08:58:02;;;;;;;26.23;4.97;;;;;;;;;;5034897;28;20041;-71
2022/10/07 09:00:37;;;;;;;22.45;4.00;;;;;;;;;;5034920;28;20048;-71
2022/10/07 09:03:23;;;;;;;16.35;3.65;;;;;;;;;;5034855;28;20041;-71
2022/10/07 09:05:49;;;;;;;19.50;3.85;;;;;;;;;;5036176;28;20045;-72
2022/10/07 09:08:27;;;;;;;19.40;3.83;;;;;;;;;;5035043;28;20038;-72
2022/10/07 09:10:54;;;;;;;18.60;3.63;;;;;;;;;;5034670;28;20048;-72
2022/10/07 09:13:24;;;;;;;17.58;3.83;;;;;;;;;;5034747;28;20043;-72
2022/10/07 09:15:59;;;;;;;16.63;3.58;;;;;;;;;;5034653;28;20493;-72
2022/10/07 09:18:43;;;;;;;20.13;4.05;;;;;;;;;;5034899;28;20049;-72
2022/10/07 09:21:17;;;;;;;20.65;3.65;;;;;;;;;;5034902;28;20045;-71
2022/10/07 09:23:44;;;;;;;20.45;4.20;;;;;;;;;;5034897;28;20498;-71
2022/10/07 09:26:11;;;;;;;20.33;3.80;;;;;;;;;;5034663;28;20155;-71
2022/10/07 09:28:37;;;;;;;23.77;3.95;;;;;;;;;;5034573;28;20148;-72
2022/10/07 09:31:03;;;;;;;19.98;3.95;;;;;;;;;;5034758;28;20068;-71
2022/10/07 09:33:30;;;;;;;22.92;3.70;;;;;;;;;;5034519;28;20049;-71
2022/10/07 09:35:57;;;;;;;19.75;4.05;;;;;;;;;;5034660;28;20107;-71
2022/10/07 09:38:51;;;;;;;23.20;3.80;;;;;;;;;;5034267;28;20046;-71
2022/10/07 09:41:19;;;;;;;16.27;3.55;;;;;;;;;;5049083;28;20116;-71
2022/10/07 09:44:00;;;;;;;12.77;3.40;;;;;;;;;;5034720;28;20170;-71
2022/10/07 09:46:30;;;;;;;21.00;3.58;;;;;;;;;;5034148;28;20053;-71
2022/10/07 09:48:56;;;;;;;19.23;3.83;;;;;;;;;;5035104;28;20592;-71
2022/10/07 09:51:25;;;;;;;16.48;3.83;;;;;;;;;;5034073;28;20056;-71
2022/10/07 09:53:58;;;;;;;23.45;4.25;;;;;;;;;;5034066;28;20121;-71
2022/10/07 09:56:40;;;;;;;23.90;4.53;;;;;;;;;;5034355;28;20468;-71
2022/10/07 09:59:06;;;;;;;;;;;;;;;;;;5033988;28;20057;-71
2022/10/07 10:01:32;;;;;;;16.33;3.58;;;;;;;;;;5033825;28;19917;-71
2022/10/07 10:03:59;;;;;;;24.00;4.05;;;;;;;;;;5017535;28;20045;-70
2022/10/07 10:06:26;;;;;;;18.88;3.85;;;;;;;;;;5033642;28;20046;-71
2022/10/07 10:08:56;;;;;;;23.25;4.65;;;;;;;;;;5033756;28;20084;-71
2022/10/07 10:11:29;;;;;;;27.92;4.65;;;;;;;;;;5033951;28;20103;-71
2022/10/07 10:13:56;;;;;;;18.67;4.35;;;;;;;;;;5017568;28;20089;-71
2022/10/07 10:16:25;;;;;;;20.17;3.90;;;;;;;;;;5017831;28;20060;-71
2022/10/07 10:18:57;;;;;;;24.70;4.07;;;;;;;;;;5018188;28;20045;-71
2022/10/07 10:21:27;;;;;;;18.95;3.85;;;;;;;;;;5035719;28;20072;-71
2022/10/07 10:23:55;;;;;;;24.23;4.25;;;;;;;;;;5034580;28;20050;-71
2022/10/07 10:26:36;;;;;;;17.40;4.50;;;;;;;;;;5033362;28;20045;-71
2022/10/07 10:29:14;;;;;;;18.45;3.95;;;;;;;;;;5033612;28;20045;-71
2022/10/07 10:31:51;;;;;;;16.42;4.03;;;;;;;;;;5033428;28;20040;-71
2022/10/07 10:34:24;;;;;;;16.83;4.45;;;;;;;;;;5033192;28;20049;-71
2022/10/07 10:36:54;;;;;;;16.55;3.53;;;;;;;;;;5033138;28;20049;-71
2022/10/07 10:39:38;;;;;;;18.02;4.65;;;;;;;;;;5033171;28;20127;-71
2022/10/07 10:42:07;;;;;;;17.83;3.70;;;;;;;;;;5016583;28;20085;-71
2022/10/07 10:44:45;;;;;;;19.75;4.25;;;;;;;;;;5034366;28;20482;-71
2022/10/07 10:47:24;;;;;;;19.08;4.03;;;;;;;;;;5032944;28;20041;-71
2022/10/07 10:49:57;;;;;;;22.30;3.40;;;;;;;;;;5032803;28;20053;-71
2022/10/07 10:52:26;;;;;;;17.65;4.00;;;;;;;;;;5033151;28;20144;-71
2022/10/07 10:55:11;;;;;;;24.75;4.63;;;;;;;;;;5033150;28;20440;-71
2022/10/07 10:57:40;;;;;;;25.85;5.25;;;;;;;;;;5032845;28;20041;-71
2022/10/07 11:00:10;;;;;;;18.75;4.18;;;;;;;;;;5032562;28;20077;-71
2022/10/07 11:02:37;;;;;;;16.25;3.28;;;;;;;;;;5032941;28;20116;-71
2022/10/07 11:05:06;;;;;;;24.10;4.25;;;;;;;;;;5032589;28;20037;-71
2022/10/07 11:07:35;;;;;;;21.08;4.05;;;;;;;;;;5032395;28;20041;-71
2022/10/07 11:10:17;;;;;;;21.35;4.18;;;;;;;;;;5032498;28;20042;-71
2022/10/07 11:12:45;;;;;;;17.38;3.67;;;;;;;;;;5031833;28;20033;-71
2022/10/07 11:15:11;;;;;;;21.38;4.10;;;;;;;;;;5032793;28;20071;-71
2022/10/07 11:17:38;;;;;;;21.92;4.07;;;;;;;;;;5031333;28;20547;-70
2022/10/07 11:20:14;;;;;;;19.23;4.15;;;;;;;;;;5032054;28;20083;-70
2022/10/07 11:22:43;;;;;;;24.92;4.10;;;;;;;;;;5032077;28;20052;-71
2022/10/07 11:25:29;;;;;;;21.17;3.85;;;;;;;;;;5031801;28;20068;-71
2022/10/07 11:27:59;;;;;;;14.30;3.72;;;;;;;;;;5019198;28;20537;-71
2022/10/07 11:30:30;;;;;;;34.15;3.90;;;;;;;;;;5032423;28;20040;-71
2022/10/07 11:33:04;;;;;;;18.73;4.28;;;;;;;;;;5032214;28;20477;-71
2022/10/07 11:35:31;;;;;;;16.38;4.10;;;;;;;;;;5032585;28;20049;-70
2022/10/07 11:38:01;;;;;;;18.15;3.83;;;;;;;;;;5032242;28;20045;-70
2022/10/07 11:40:29;;;;;;;16.23;3.88;;;;;;;;;;5031919;28;20133;-71
2022/10/07 11:43:00;;;;;;;19.17;4.18;;;17.20;99.90;;;;;;5033325;28;20060;-71
2022/10/07 11:45:32;;;;;;;17.17;4.55;;;;;;;;;;5031971;28;20125;-71
2022/10/07 11:48:06;;;;;;;23.48;4.38;;;;;;;;;;5032045;28;20068;-71
2022/10/07 11:50:36;;;;;;;21.92;4.65;;;;;;;;;;5031880;28;20081;-71
2022/10/07 11:53:05;;;;;;;23.40;3.90;;;;;;;;;;5031914;28;20124;-71
2022/10/07 11:55:34;;;;;;;21.83;4.18;;;;;;;;;;5032091;28;20045;-71
2022/10/07 11:58:03;;;;;;;24.48;4.68;;;17.60;99.90;;;;;;5031870;28;20073;-71
2022/10/07 12:00:32;;;;;;;14.68;3.88;;;;;;;;;;5032091;28;20053;-71
2022/10/07 12:03:18;;;;;;;17.48;4.05;;;;;;;;;;5015368;28;20108;-70
2022/10/07 12:05:51;;;;;;;17.80;4.22;;;;;;;;;;5018453;28;20053;-71
2022/10/07 12:08:27;;;;;;;23.67;4.07;;;;;;;;;;5015566;28;20144;-70
2022/10/07 12:10:54;;;;;;;18.00;3.50;;;;;;;;;;5031955;28;20041;-72
2022/10/07 12:13:20;;;;;;;19.58;3.25;;;;;;;;;;5015584;28;20049;-72
2022/10/07 12:15:46;;;;;;;16.38;3.30;;;;;;;;;;5031732;28;20046;-72
2022/10/07 12:18:18;;;;;;;23.10;4.25;;;;;;;;;;5033071;28;20183;-72
2022/10/07 12:20:54;;;;;;;19.08;3.85;;;;;;;;;;5031669;28;20045;-71
2022/10/07 12:23:27;;;;;;;16.10;2.95;;;;;;;;;;5034131;28;20053;-71
2022/10/07 12:25:53;;;;;;;22.30;3.35;;;;;;;;;;5035603;28;20045;-71
2022/10/07 12:28:34;;;;;;;23.20;4.70;;;;;;;;;;5035651;28;20156;-71
2022/10/07 12:31:00;;;;;;;15.73;3.17;;;;;;;;;;5035570;28;20041;-71
2022/10/07 12:33:45;;;;;;;13.88;3.17;;;;;;;;;;5035428;28;20046;-71
2022/10/07 12:36:20;;;;;;;19.88;2.88;;;;;;;;;;5035721;28;20362;-71
2022/10/07 12:39:10;;;;;;;20.33;2.75;;;18.10;99.90;;;;;;5035375;28;20056;-71
2022/10/07 12:41:41;;;;;;;16.58;2.80;;;;;;;;;;5035052;28;20053;-71
2022/10/07 12:44:09;;;;;;;15.55;2.92;;;;;;;;;;5035395;28;20037;-71
2022/10/07 12:46:56;;;;;;;14.93;2.90;;;;;;;;;;5035243;28;20444;-71
2022/10/07 12:49:28;;;;;;;22.92;3.63;;;;;;;;;;5035212;28;20132;-71
2022/10/07 12:51:56;;;;;;;15.13;2.58;;;;;;;;;;5035168;28;20041;-71
2022/10/07 12:54:31;;;;;;;17.00;3.20;;;17.90;99.90;;;;;;5035430;28;20057;-72
2022/10/07 12:56:57;;;;;;;19.58;3.55;;;;;;;;;;5036391;28;20056;-72
2022/10/07 12:59:48;;;;;;;17.02;2.75;;;;;;;;;;5034900;28;20052;-72
2022/10/07 13:02:33;;;;;;;10.68;2.60;;;;;;;;;;5018544;28;20400;-72
2022/10/07 13:05:35;;;;;;;19.13;3.20;;;;;;;;;;5034703;28;20152;-72
2022/10/07 13:08:19;;;;;;;16.48;3.08;;;;;;;;;;4959083;28;20126;-72
2022/10/07 13:11:04;;;;;;;16.05;2.88;;;;;;;;;;5012522;28;20154;-72
2022/10/07 13:13:39;;;;;;;17.17;3.10;;;;;;;;;;5034820;28;20029;-72
2022/10/07 13:16:09;;;;;;;16.77;2.88;;;;;;;;;;5034811;28;20484;-72
2022/10/07 13:18:41;;;;;;;15.25;2.60;;;;;;;;;;5034620;28;20052;-72
2022/10/07 13:21:14;;;;;;;14.17;2.93;;;;;;;;;;5018144;28;20049;-72
2022/10/07 13:23:40;;;;;;;20.02;2.97;;;;;;;;;;5018538;28;20041;-72
2022/10/07 13:26:06;;;;;;;17.45;3.58;;;;;;;;;;5034632;28;20096;-73
2022/10/07 13:28:37;;;;;;;13.90;2.78;;;;;;;;;;5018326;28;20436;-73
2022/10/07 13:31:14;;;;;;;17.45;3.28;;;;;;;;;;5018059;28;20069;-73
2022/10/07 13:33:42;;;;;;;17.90;3.00;;;;;;;;;;5017507;28;20155;-73
2022/10/07 13:36:08;;;;;;;16.40;2.78;;;;;;;;;;5033911;28;20053;-73
2022/10/07 13:38:34;;;;;;;13.45;2.80;;;;;;;;;;5034740;28;20095;-73
2022/10/07 13:41:03;;;;;;;17.35;2.97;;;;;;;;;;5034435;28;20084;-73
2022/10/07 13:43:30;;;;;;;21.13;3.17;;;;;;;;;;5034353;28;20048;-73
2022/10/07 13:45:58;;;;;;;20.85;3.83;;;;;;;;;;5034180;28;20037;-73
2022/10/07 13:48:33;;;;;;;13.32;2.90;;;18.20;99.90;;;;;;5034121;28;20054;-71
2022/10/07 13:51:00;;;;;;;17.98;3.05;;;;;;;;;;5033977;28;20056;-72
2022/10/07 13:53:26;;;;;;;15.00;3.63;;;;;;;;;;5034254;28;20041;-72
2022/10/07 13:56:04;;;;;;;17.48;3.20;;;;;;;;;;5033968;28;20048;-72
2022/10/07 13:58:31;;;;;;;22.20;2.88;;;;;;;;;;5033941;28;20050;-72
2022/10/07 14:00:58;;;;;;;19.02;3.10;;;;;;;;;;5034061;28;20120;-73
2022/10/07 14:03:24;;;;;;;14.82;3.65;;;;;;;;;;5033847;28;20044;-73
2022/10/07 14:05:51;;;;;;;19.55;3.70;;;;;;;;;;5033644;28;20490;-73
2022/10/07 14:08:20;;;;;;;14.10;2.15;;;;;;;;;;5034125;28;20170;-72
2022/10/07 14:10:51;;;;;;;15.10;2.97;;;;;;;;;;5033769;28;20077;-72
2022/10/07 14:13:17;;;;;;;16.77;2.92;;;;;;;;;;5033917;28;20073;-72
2022/10/07 14:15:50;;;;;;;14.02;2.80;;;17.60;99.90;;;;;;5033513;28;20127;-72
2022/10/07 14:18:17;;;;;;;20.75;3.28;;;;;;;;;;5033786;28;20048;-72
2022/10/07 14:21:07;;;;;;;17.50;3.10;;;17.50;99.90;;;;;;5033813;28;20042;-72
2022/10/07 14:23:34;;;;;;;18.95;2.85;;;;;;;;;;5033817;28;20055;-72
2022/10/07 14:26:05;;;;;;;15.57;3.40;;;17.50;99.90;;;;;;5017130;28;20053;-72
2022/10/07 14:28:33;;;;;;;15.40;2.45;;;17.60;99.90;;;;;;5033586;28;20045;-72
2022/10/07 14:37:04;;;;;;;16.08;2.83;;;17.40;99.90;;;;;;5033174;28;20049;-72
2022/10/07 14:39:47;;;;;;;12.35;3.22;;;;;;;;;;5033203;28;20084;-72
2022/10/07 14:42:15;;;;;;;13.75;2.70;;;;;;;;;;5033353;28;20049;-72
2022/10/07 14:44:43;;;;;;;14.63;2.72;;;17.20;99.90;;;;;;5033313;28;20048;-72
2022/10/07 14:47:13;;;;;;;15.35;3.17;;;;;;;;;;5032826;28;20600;-72
2022/10/07 14:49:41;;;;;;;22.92;2.70;;;;;;;;;;5032809;28;20045;-72
2022/10/07 14:52:09;;;;;;;13.35;2.47;;;;;;;;;;5034191;28;20041;-72
2022/10/07 14:54:36;;;;;;;16.10;2.90;;;;;;;;;;5032989;28;20049;-73
2022/10/07 14:57:02;;;;;;;17.63;2.75;;;;;;;;;;5032859;28;20082;-73